Aérodrome :
LOGIN :

S'inscrire | Disclaimer

   EN    FR    IT 

 










Légende :    VFR   VFR Marginal   IFR   IFR Intensif   IFR Très Intensif
Visi : 
Plafond : 
>= 8 km
>= 3000ft
5 à 8 km
1000 à 3000 ft
1500m à 5 km
500 à 1000 ft
800 à 1500m
200 à 500 ft
< 800m
< 200 ft
Symboles :   Orages  Brouillard  Fortes neiges  Fortes précipitations  Vent > 20 kt
SIGMETs :   Divers  Orages  Givrage  Turbulence  Onde Orograph.  Cendres Volcan.







- Altitude de l'aérodrome : 12 ft
- Code IATA : BCN


LEBL - Barcelone

DERNIER METAR :
  • 120200Z 33009KT 9000 FEW035 07/05 Q1019 NOSIG

METARs EXPIRÉS :
  • 120130Z 33008KT 9999 FEW035 07/05 Q1019 NOSIG
  • 120100Z 33008KT 9999 FEW035 08/05 Q1019 NOSIG
  • 120030Z 33010KT 9999 FEW035 08/05 Q1019 NOSIG
  • 120000Z 33010KT 9999 FEW035 08/05 Q1019 NOSIG
  • 112330Z 33009KT CAVOK 08/06 Q1019 NOSIG

TAF TAF LEBL
Valide du 12 à 00h jusqu'au 13 à 00h UTC


112300Z 1200/1224 34007KT 9999 FEW025 TX15/1212Z TN07/1206Z
TEMPO 1202/1210 34010G22KT
TEMPO 1212/1219 VRB04KT
Pas de NOTAMs connus pour ce terrain.



MET'MAP, la Météo Aéronautique d'un coup d'oeil ! - Copyright ORBIFLY Décembre 2007 - Disclaimer

ORBIFLY MET'MAP TEAM :

Programmation & Développement : Alexandra Zaïnal
Conception & Développement : Baudouin d'Aumeries
Co-Programmation & Développement : Marc-Olivier Méhu
Soutien technique & logistique : Manuel Goepfert

Contact : metmap@orbifly.com




SOURCES & CREDITS :

   NOAA